sensor_id;sensor_type;location;lat;lon;timestamp;P1;durP1;ratioP1;P2;durP2;ratioP2
74967;SDS011;63523;51.880;12.630;2023-11-21T00:01:05;24.60;;;7.47;;
74967;SDS011;63523;51.880;12.630;2023-11-21T00:03:33;25.58;;;7.70;;
74967;SDS011;63523;51.880;12.630;2023-11-21T00:05:59;23.33;;;6.70;;
74967;SDS011;63523;51.880;12.630;2023-11-21T00:08:25;18.75;;;5.03;;
74967;SDS011;63523;51.880;12.630;2023-11-21T00:10:50;16.23;;;4.80;;
74967;SDS011;63523;51.880;12.630;2023-11-21T00:13:16;13.73;;;3.85;;
74967;SDS011;63523;51.880;12.630;2023-11-21T00:15:41;10.93;;;3.30;;
74967;SDS011;63523;51.880;12.630;2023-11-21T00:18:07;11.37;;;2.20;;
74967;SDS011;63523;51.880;12.630;2023-11-21T00:20:32;8.47;;;1.90;;
74967;SDS011;63523;51.880;12.630;2023-11-21T00:22:57;8.57;;;1.63;;
74967;SDS011;63523;51.880;12.630;2023-11-21T00:25:24;9.45;;;1.65;;
74967;SDS011;63523;51.880;12.630;2023-11-21T00:27:50;5.77;;;1.73;;
74967;SDS011;63523;51.880;12.630;2023-11-21T00:30:15;8.27;;;1.33;;
74967;SDS011;63523;51.880;12.630;2023-11-21T00:32:40;6.32;;;1.50;;
74967;SDS011;63523;51.880;12.630;2023-11-21T00:35:06;6.27;;;1.57;;
74967;SDS011;63523;51.880;12.630;2023-11-21T00:37:31;8.60;;;1.50;;
74967;SDS011;63523;51.880;12.630;2023-11-21T00:39:57;6.50;;;1.53;;
74967;SDS011;63523;51.880;12.630;2023-11-21T00:42:22;5.25;;;1.30;;
74967;SDS011;63523;51.880;12.630;2023-11-21T00:44:48;6.57;;;1.40;;
74967;SDS011;63523;51.880;12.630;2023-11-21T00:47:13;6.97;;;1.43;;
74967;SDS011;63523;51.880;12.630;2023-11-21T00:49:38;11.63;;;1.70;;
74967;SDS011;63523;51.880;12.630;2023-11-21T00:52:04;6.63;;;1.58;;
74967;SDS011;63523;51.880;12.630;2023-11-21T00:54:30;8.43;;;2.00;;
74967;SDS011;63523;51.880;12.630;2023-11-21T00:56:55;8.73;;;1.60;;
74967;SDS011;63523;51.880;12.630;2023-11-21T00:59:21;6.97;;;1.92;;
74967;SDS011;63523;51.880;12.630;2023-11-21T01:01:48;9.17;;;1.97;;
74967;SDS011;63523;51.880;12.630;2023-11-21T01:04:13;8.93;;;1.80;;
74967;SDS011;63523;51.880;12.630;2023-11-21T01:06:38;7.00;;;1.80;;
74967;SDS011;63523;51.880;12.630;2023-11-21T01:09:04;7.07;;;1.70;;
74967;SDS011;63523;51.880;12.630;2023-11-21T01:11:33;6.13;;;1.80;;
74967;SDS011;63523;51.880;12.630;2023-11-21T01:14:01;7.13;;;1.58;;
74967;SDS011;63523;51.880;12.630;2023-11-21T01:16:28;10.68;;;1.85;;
74967;SDS011;63523;51.880;12.630;2023-11-21T01:18:53;6.23;;;1.80;;
74967;SDS011;63523;51.880;12.630;2023-11-21T01:21:18;6.13;;;1.80;;
74967;SDS011;63523;51.880;12.630;2023-11-21T01:23:44;6.90;;;1.70;;
74967;SDS011;63523;51.880;12.630;2023-11-21T01:26:09;8.80;;;1.83;;
74967;SDS011;63523;51.880;12.630;2023-11-21T01:28:34;7.37;;;2.07;;
74967;SDS011;63523;51.880;12.630;2023-11-21T01:31:00;8.30;;;1.73;;
74967;SDS011;63523;51.880;12.630;2023-11-21T01:33:25;5.83;;;1.97;;
74967;SDS011;63523;51.880;12.630;2023-11-21T01:35:50;7.30;;;1.80;;
74967;SDS011;63523;51.880;12.630;2023-11-21T01:38:19;7.28;;;1.70;;
74967;SDS011;63523;51.880;12.630;2023-11-21T01:40:45;7.27;;;2.33;;
74967;SDS011;63523;51.880;12.630;2023-11-21T01:43:10;7.60;;;2.13;;
74967;SDS011;63523;51.880;12.630;2023-11-21T01:45:35;7.37;;;2.00;;
74967;SDS011;63523;51.880;12.630;2023-11-21T01:48:00;10.27;;;2.47;;
74967;SDS011;63523;51.880;12.630;2023-11-21T01:50:27;10.93;;;2.50;;
74967;SDS011;63523;51.880;12.630;2023-11-21T01:52:53;9.33;;;2.77;;
74967;SDS011;63523;51.880;12.630;2023-11-21T01:55:19;7.60;;;2.13;;
74967;SDS011;63523;51.880;12.630;2023-11-21T01:57:45;8.20;;;2.40;;
74967;SDS011;63523;51.880;12.630;2023-11-21T02:00:11;11.23;;;2.53;;
74967;SDS011;63523;51.880;12.630;2023-11-21T02:02:47;9.38;;;2.40;;
74967;SDS011;63523;51.880;12.630;2023-11-21T02:05:17;9.45;;;2.83;;
74967;SDS011;63523;51.880;12.630;2023-11-21T02:07:44;10.73;;;2.17;;
74967;SDS011;63523;51.880;12.630;2023-11-21T02:10:10;12.30;;;2.50;;
74967;SDS011;63523;51.880;12.630;2023-11-21T02:12:40;15.13;;;2.30;;
74967;SDS011;63523;51.880;12.630;2023-11-21T02:15:12;10.95;;;2.58;;
74967;SDS011;63523;51.880;12.630;2023-11-21T02:17:45;10.85;;;2.25;;
74967;SDS011;63523;51.880;12.630;2023-11-21T02:20:22;9.80;;;2.40;;
74967;SDS011;63523;51.880;12.630;2023-11-21T02:25:25;11.38;;;3.30;;
74967;SDS011;63523;51.880;12.630;2023-11-21T02:27:52;10.88;;;2.70;;
74967;SDS011;63523;51.880;12.630;2023-11-21T02:30:19;10.23;;;2.72;;
74967;SDS011;63523;51.880;12.630;2023-11-21T02:32:46;11.38;;;2.95;;
74967;SDS011;63523;51.880;12.630;2023-11-21T02:35:12;10.40;;;3.03;;
74967;SDS011;63523;51.880;12.630;2023-11-21T02:37:37;13.80;;;2.70;;
74967;SDS011;63523;51.880;12.630;2023-11-21T02:40:03;12.13;;;3.45;;
74967;SDS011;63523;51.880;12.630;2023-11-21T02:42:31;25.52;;;6.88;;
74967;SDS011;63523;51.880;12.630;2023-11-21T02:44:56;25.73;;;7.87;;
74967;SDS011;63523;51.880;12.630;2023-11-21T02:47:22;29.13;;;9.17;;
74967;SDS011;63523;51.880;12.630;2023-11-21T02:49:48;33.35;;;9.77;;
74967;SDS011;63523;51.880;12.630;2023-11-21T02:52:13;33.37;;;10.00;;
74967;SDS011;63523;51.880;12.630;2023-11-21T02:54:39;30.63;;;8.73;;
74967;SDS011;63523;51.880;12.630;2023-11-21T02:57:04;15.85;;;4.82;;
74967;SDS011;63523;51.880;12.630;2023-11-21T02:59:29;14.47;;;4.63;;
74967;SDS011;63523;51.880;12.630;2023-11-21T03:01:55;14.20;;;4.10;;
74967;SDS011;63523;51.880;12.630;2023-11-21T03:04:21;18.30;;;5.13;;
74967;SDS011;63523;51.880;12.630;2023-11-21T03:06:47;12.10;;;3.30;;
74967;SDS011;63523;51.880;12.630;2023-11-21T03:09:12;9.53;;;3.07;;
74967;SDS011;63523;51.880;12.630;2023-11-21T03:11:37;9.90;;;3.20;;
74967;SDS011;63523;51.880;12.630;2023-11-21T03:14:03;16.00;;;4.90;;
74967;SDS011;63523;51.880;12.630;2023-11-21T03:16:28;15.73;;;4.60;;
74967;SDS011;63523;51.880;12.630;2023-11-21T03:18:54;22.15;;;6.50;;
74967;SDS011;63523;51.880;12.630;2023-11-21T03:21:19;22.93;;;7.27;;
74967;SDS011;63523;51.880;12.630;2023-11-21T03:23:45;17.40;;;5.50;;
74967;SDS011;63523;51.880;12.630;2023-11-21T03:26:13;13.50;;;4.23;;
74967;SDS011;63523;51.880;12.630;2023-11-21T03:28:38;12.38;;;3.67;;
74967;SDS011;63523;51.880;12.630;2023-11-21T03:31:04;10.63;;;3.07;;
74967;SDS011;63523;51.880;12.630;2023-11-21T03:33:31;9.77;;;3.05;;
74967;SDS011;63523;51.880;12.630;2023-11-21T03:35:57;11.52;;;2.60;;
74967;SDS011;63523;51.880;12.630;2023-11-21T03:38:22;10.90;;;3.00;;
74967;SDS011;63523;51.880;12.630;2023-11-21T03:40:48;11.70;;;2.87;;
74967;SDS011;63523;51.880;12.630;2023-11-21T03:43:13;10.23;;;3.20;;
74967;SDS011;63523;51.880;12.630;2023-11-21T03:45:38;11.13;;;2.70;;
74967;SDS011;63523;51.880;12.630;2023-11-21T03:48:05;12.77;;;2.75;;
74967;SDS011;63523;51.880;12.630;2023-11-21T03:50:31;8.87;;;2.53;;
74967;SDS011;63523;51.880;12.630;2023-11-21T03:52:56;9.53;;;2.83;;
74967;SDS011;63523;51.880;12.630;2023-11-21T03:55:22;11.23;;;2.70;;
74967;SDS011;63523;51.880;12.630;2023-11-21T03:57:49;8.35;;;2.50;;
74967;SDS011;63523;51.880;12.630;2023-11-21T04:00:14;10.27;;;2.10;;
74967;SDS011;63523;51.880;12.630;2023-11-21T04:02:39;8.73;;;2.47;;
74967;SDS011;63523;51.880;12.630;2023-11-21T04:05:05;9.77;;;2.10;;
74967;SDS011;63523;51.880;12.630;2023-11-21T04:07:32;8.35;;;2.00;;
74967;SDS011;63523;51.880;12.630;2023-11-21T04:09:57;9.77;;;2.23;;
74967;SDS011;63523;51.880;12.630;2023-11-21T04:12:22;9.47;;;2.37;;
74967;SDS011;63523;51.880;12.630;2023-11-21T04:14:48;8.13;;;1.90;;
74967;SDS011;63523;51.880;12.630;2023-11-21T04:17:13;10.13;;;2.77;;
74967;SDS011;63523;51.880;12.630;2023-11-21T04:19:38;8.90;;;2.20;;
74967;SDS011;63523;51.880;12.630;2023-11-21T04:22:04;10.90;;;2.00;;
74967;SDS011;63523;51.880;12.630;2023-11-21T04:24:29;9.50;;;2.60;;
74967;SDS011;63523;51.880;12.630;2023-11-21T04:26:54;7.23;;;1.90;;
74967;SDS011;63523;51.880;12.630;2023-11-21T04:29:20;6.63;;;1.67;;
74967;SDS011;63523;51.880;12.630;2023-11-21T04:31:45;7.87;;;1.80;;
74967;SDS011;63523;51.880;12.630;2023-11-21T04:34:13;6.75;;;1.73;;
74967;SDS011;63523;51.880;12.630;2023-11-21T04:36:39;6.87;;;1.90;;
74967;SDS011;63523;51.880;12.630;2023-11-21T04:39:05;9.60;;;2.22;;
74967;SDS011;63523;51.880;12.630;2023-11-21T04:41:31;8.98;;;2.05;;
74967;SDS011;63523;51.880;12.630;2023-11-21T04:43:56;7.27;;;1.90;;
74967;SDS011;63523;51.880;12.630;2023-11-21T04:46:23;8.57;;;1.80;;
74967;SDS011;63523;51.880;12.630;2023-11-21T04:48:48;7.00;;;2.00;;
74967;SDS011;63523;51.880;12.630;2023-11-21T04:51:14;7.43;;;2.13;;
74967;SDS011;63523;51.880;12.630;2023-11-21T04:53:39;6.03;;;1.63;;
74967;SDS011;63523;51.880;12.630;2023-11-21T04:56:05;7.70;;;2.50;;
74967;SDS011;63523;51.880;12.630;2023-11-21T04:58:30;7.10;;;2.37;;
74967;SDS011;63523;51.880;12.630;2023-11-21T05:00:56;8.23;;;2.27;;
74967;SDS011;63523;51.880;12.630;2023-11-21T05:03:22;8.40;;;1.80;;
74967;SDS011;63523;51.880;12.630;2023-11-21T05:05:48;7.10;;;1.85;;
74967;SDS011;63523;51.880;12.630;2023-11-21T05:08:14;7.53;;;1.80;;
74967;SDS011;63523;51.880;12.630;2023-11-21T05:10:39;5.37;;;1.27;;
74967;SDS011;63523;51.880;12.630;2023-11-21T05:13:05;4.85;;;0.80;;
74967;SDS011;63523;51.880;12.630;2023-11-21T05:15:34;4.70;;;1.00;;
74967;SDS011;63523;51.880;12.630;2023-11-21T05:18:00;4.55;;;0.85;;
74967;SDS011;63523;51.880;12.630;2023-11-21T05:20:25;6.40;;;1.07;;
74967;SDS011;63523;51.880;12.630;2023-11-21T05:22:50;7.37;;;1.73;;
74967;SDS011;63523;51.880;12.630;2023-11-21T05:25:16;11.83;;;2.87;;
74967;SDS011;63523;51.880;12.630;2023-11-21T05:27:43;11.57;;;3.00;;
74967;SDS011;63523;51.880;12.630;2023-11-21T05:30:09;9.88;;;2.47;;
74967;SDS011;63523;51.880;12.630;2023-11-21T05:32:37;11.40;;;3.13;;
74967;SDS011;63523;51.880;12.630;2023-11-21T05:35:03;12.63;;;3.45;;
74967;SDS011;63523;51.880;12.630;2023-11-21T05:37:28;13.95;;;3.53;;
74967;SDS011;63523;51.880;12.630;2023-11-21T05:39:54;18.17;;;3.53;;
74967;SDS011;63523;51.880;12.630;2023-11-21T05:42:21;15.38;;;4.03;;
74967;SDS011;63523;51.880;12.630;2023-11-21T05:44:48;15.55;;;4.43;;
74967;SDS011;63523;51.880;12.630;2023-11-21T05:47:13;16.63;;;4.47;;
74967;SDS011;63523;51.880;12.630;2023-11-21T05:49:39;19.10;;;4.63;;
74967;SDS011;63523;51.880;12.630;2023-11-21T05:52:04;14.47;;;4.37;;
74967;SDS011;63523;51.880;12.630;2023-11-21T05:54:30;12.60;;;3.70;;
74967;SDS011;63523;51.880;12.630;2023-11-21T05:56:55;14.27;;;4.30;;
74967;SDS011;63523;51.880;12.630;2023-11-21T05:59:21;15.32;;;3.88;;
74967;SDS011;63523;51.880;12.630;2023-11-21T06:01:46;14.13;;;3.93;;
74967;SDS011;63523;51.880;12.630;2023-11-21T06:04:12;12.30;;;3.27;;
74967;SDS011;63523;51.880;12.630;2023-11-21T06:06:38;15.18;;;3.75;;
74967;SDS011;63523;51.880;12.630;2023-11-21T06:09:03;14.23;;;3.63;;
74967;SDS011;63523;51.880;12.630;2023-11-21T06:11:33;12.27;;;3.35;;
74967;SDS011;63523;51.880;12.630;2023-11-21T06:13:59;13.90;;;3.30;;
74967;SDS011;63523;51.880;12.630;2023-11-21T06:16:24;15.17;;;3.93;;
74967;SDS011;63523;51.880;12.630;2023-11-21T06:18:50;15.33;;;3.60;;
74967;SDS011;63523;51.880;12.630;2023-11-21T06:21:15;17.73;;;4.20;;
74967;SDS011;63523;51.880;12.630;2023-11-21T06:23:42;14.75;;;4.00;;
74967;SDS011;63523;51.880;12.630;2023-11-21T06:26:07;14.97;;;3.80;;
74967;SDS011;63523;51.880;12.630;2023-11-21T06:28:34;13.45;;;3.85;;
74967;SDS011;63523;51.880;12.630;2023-11-21T06:30:59;13.77;;;3.40;;
74967;SDS011;63523;51.880;12.630;2023-11-21T06:33:29;14.17;;;2.90;;
74967;SDS011;63523;51.880;12.630;2023-11-21T06:35:58;14.02;;;3.17;;
74967;SDS011;63523;51.880;12.630;2023-11-21T06:38:23;10.07;;;2.83;;
74967;SDS011;63523;51.880;12.630;2023-11-21T06:44:07;9.43;;;2.77;;
74967;SDS011;63523;51.880;12.630;2023-11-21T06:46:33;9.23;;;2.47;;
74967;SDS011;63523;51.880;12.630;2023-11-21T06:48:59;12.20;;;2.72;;
74967;SDS011;63523;51.880;12.630;2023-11-21T06:51:24;9.83;;;2.67;;
74967;SDS011;63523;51.880;12.630;2023-11-21T06:53:49;12.50;;;3.00;;
74967;SDS011;63523;51.880;12.630;2023-11-21T06:56:18;11.77;;;2.73;;
74967;SDS011;63523;51.880;12.630;2023-11-21T06:58:44;10.50;;;3.35;;
74967;SDS011;63523;51.880;12.630;2023-11-21T07:01:10;10.30;;;2.90;;
74967;SDS011;63523;51.880;12.630;2023-11-21T07:03:36;10.82;;;3.40;;
74967;SDS011;63523;51.880;12.630;2023-11-21T07:06:02;13.40;;;3.40;;
74967;SDS011;63523;51.880;12.630;2023-11-21T07:08:28;13.50;;;4.13;;
74967;SDS011;63523;51.880;12.630;2023-11-21T07:10:53;16.00;;;4.53;;
74967;SDS011;63523;51.880;12.630;2023-11-21T07:13:18;17.97;;;4.17;;
74967;SDS011;63523;51.880;12.630;2023-11-21T07:15:43;18.23;;;4.30;;
74967;SDS011;63523;51.880;12.630;2023-11-21T07:18:09;17.23;;;4.30;;
74967;SDS011;63523;51.880;12.630;2023-11-21T07:20:34;15.60;;;4.50;;
74967;SDS011;63523;51.880;12.630;2023-11-21T07:22:59;16.37;;;4.53;;
74967;SDS011;63523;51.880;12.630;2023-11-21T07:25:26;18.55;;;4.85;;
74967;SDS011;63523;51.880;12.630;2023-11-21T07:27:51;18.80;;;4.20;;
74967;SDS011;63523;51.880;12.630;2023-11-21T07:30:17;18.77;;;4.90;;
74967;SDS011;63523;51.880;12.630;2023-11-21T07:32:43;17.42;;;4.82;;
74967;SDS011;63523;51.880;12.630;2023-11-21T07:35:09;20.43;;;5.03;;
74967;SDS011;63523;51.880;12.630;2023-11-21T07:37:35;19.42;;;4.95;;
74967;SDS011;63523;51.880;12.630;2023-11-21T07:40:00;23.37;;;4.93;;
74967;SDS011;63523;51.880;12.630;2023-11-21T07:42:26;20.23;;;5.30;;
74967;SDS011;63523;51.880;12.630;2023-11-21T07:44:52;23.45;;;5.00;;
74967;SDS011;63523;51.880;12.630;2023-11-21T07:47:17;20.13;;;5.30;;
74967;SDS011;63523;51.880;12.630;2023-11-21T07:49:43;19.80;;;5.40;;
74967;SDS011;63523;51.880;12.630;2023-11-21T07:52:10;22.13;;;5.28;;
74967;SDS011;63523;51.880;12.630;2023-11-21T07:54:35;18.20;;;5.23;;
74967;SDS011;63523;51.880;12.630;2023-11-21T07:57:01;23.42;;;5.07;;
74967;SDS011;63523;51.880;12.630;2023-11-21T07:59:26;19.57;;;4.53;;
74967;SDS011;63523;51.880;12.630;2023-11-21T08:01:52;16.90;;;4.47;;
74967;SDS011;63523;51.880;12.630;2023-11-21T08:04:17;23.60;;;5.05;;
74967;SDS011;63523;51.880;12.630;2023-11-21T08:06:43;17.73;;;4.90;;
74967;SDS011;63523;51.880;12.630;2023-11-21T08:09:08;18.53;;;5.23;;
74967;SDS011;63523;51.880;12.630;2023-11-21T08:11:34;20.45;;;5.40;;
74967;SDS011;63523;51.880;12.630;2023-11-21T08:13:59;24.80;;;5.43;;
74967;SDS011;63523;51.880;12.630;2023-11-21T08:16:25;21.90;;;5.20;;
74967;SDS011;63523;51.880;12.630;2023-11-21T08:18:50;22.23;;;6.10;;
74967;SDS011;63523;51.880;12.630;2023-11-21T08:21:16;23.60;;;6.07;;
74967;SDS011;63523;51.880;12.630;2023-11-21T08:23:41;23.57;;;7.00;;
74967;SDS011;63523;51.880;12.630;2023-11-21T08:26:06;24.30;;;6.90;;
74967;SDS011;63523;51.880;12.630;2023-11-21T08:28:33;26.42;;;5.93;;
74967;SDS011;63523;51.880;12.630;2023-11-21T08:31:00;24.60;;;6.80;;
74967;SDS011;63523;51.880;12.630;2023-11-21T08:33:26;19.88;;;5.65;;
74967;SDS011;63523;51.880;12.630;2023-11-21T08:35:51;20.03;;;5.97;;
74967;SDS011;63523;51.880;12.630;2023-11-21T08:38:16;20.47;;;5.83;;
74967;SDS011;63523;51.880;12.630;2023-11-21T08:40:42;20.05;;;5.20;;
74967;SDS011;63523;51.880;12.630;2023-11-21T08:43:08;15.90;;;4.60;;
74967;SDS011;63523;51.880;12.630;2023-11-21T08:45:33;17.07;;;4.90;;
74967;SDS011;63523;51.880;12.630;2023-11-21T08:47:59;17.83;;;4.60;;
74967;SDS011;63523;51.880;12.630;2023-11-21T08:50:28;17.70;;;4.75;;
74967;SDS011;63523;51.880;12.630;2023-11-21T08:52:53;16.20;;;4.37;;
74967;SDS011;63523;51.880;12.630;2023-11-21T08:55:19;19.00;;;4.97;;
74967;SDS011;63523;51.880;12.630;2023-11-21T08:57:45;16.75;;;4.97;;
74967;SDS011;63523;51.880;12.630;2023-11-21T09:00:12;17.27;;;4.60;;
74967;SDS011;63523;51.880;12.630;2023-11-21T09:02:40;20.40;;;4.97;;
74967;SDS011;63523;51.880;12.630;2023-11-21T09:05:09;15.87;;;4.40;;
74967;SDS011;63523;51.880;12.630;2023-11-21T09:07:35;17.52;;;4.75;;
74967;SDS011;63523;51.880;12.630;2023-11-21T09:10:02;14.68;;;3.97;;
74967;SDS011;63523;51.880;12.630;2023-11-21T09:12:28;15.32;;;3.75;;
74967;SDS011;63523;51.880;12.630;2023-11-21T09:14:53;17.43;;;4.53;;
74967;SDS011;63523;51.880;12.630;2023-11-21T09:17:19;14.37;;;4.13;;
74967;SDS011;63523;51.880;12.630;2023-11-21T09:19:44;15.10;;;4.32;;
74967;SDS011;63523;51.880;12.630;2023-11-21T09:22:14;15.13;;;4.60;;
74967;SDS011;63523;51.880;12.630;2023-11-21T09:24:40;15.05;;;4.40;;
74967;SDS011;63523;51.880;12.630;2023-11-21T09:27:05;16.43;;;4.63;;
74967;SDS011;63523;51.880;12.630;2023-11-21T09:29:30;14.13;;;4.33;;
74967;SDS011;63523;51.880;12.630;2023-11-21T09:31:56;15.07;;;4.65;;
74967;SDS011;63523;51.880;12.630;2023-11-21T09:34:24;16.63;;;4.67;;
74967;SDS011;63523;51.880;12.630;2023-11-21T09:36:50;17.85;;;4.75;;
74967;SDS011;63523;51.880;12.630;2023-11-21T09:39:16;17.27;;;5.40;;
74967;SDS011;63523;51.880;12.630;2023-11-21T09:41:43;16.85;;;4.53;;
74967;SDS011;63523;51.880;12.630;2023-11-21T09:44:13;16.37;;;4.60;;
74967;SDS011;63523;51.880;12.630;2023-11-21T09:46:40;22.08;;;5.50;;
74967;SDS011;63523;51.880;12.630;2023-11-21T09:49:07;18.30;;;5.45;;
74967;SDS011;63523;51.880;12.630;2023-11-21T09:51:38;18.70;;;5.43;;
74967;SDS011;63523;51.880;12.630;2023-11-21T09:54:07;21.33;;;5.38;;
74967;SDS011;63523;51.880;12.630;2023-11-21T09:56:35;17.57;;;5.27;;
74967;SDS011;63523;51.880;12.630;2023-11-21T09:59:01;20.30;;;5.60;;
74967;SDS011;63523;51.880;12.630;2023-11-21T10:01:32;18.85;;;5.40;;
74967;SDS011;63523;51.880;12.630;2023-11-21T10:03:58;26.63;;;7.10;;
74967;SDS011;63523;51.880;12.630;2023-11-21T10:06:24;21.53;;;6.43;;
74967;SDS011;63523;51.880;12.630;2023-11-21T10:08:52;16.95;;;5.38;;
74967;SDS011;63523;51.880;12.630;2023-11-21T10:11:18;18.55;;;5.35;;
74967;SDS011;63523;51.880;12.630;2023-11-21T10:13:44;16.30;;;4.63;;
74967;SDS011;63523;51.880;12.630;2023-11-21T10:16:11;14.47;;;4.40;;
74967;SDS011;63523;51.880;12.630;2023-11-21T10:18:41;13.73;;;4.45;;
74967;SDS011;63523;51.880;12.630;2023-11-21T10:21:07;14.25;;;4.38;;
74967;SDS011;63523;51.880;12.630;2023-11-21T10:23:34;14.70;;;4.13;;
74967;SDS011;63523;51.880;12.630;2023-11-21T10:25:59;12.77;;;4.07;;
74967;SDS011;63523;51.880;12.630;2023-11-21T10:28:26;14.23;;;4.50;;
74967;SDS011;63523;51.880;12.630;2023-11-21T10:30:51;13.00;;;4.40;;
74967;SDS011;63523;51.880;12.630;2023-11-21T10:33:17;13.33;;;3.83;;
74967;SDS011;63523;51.880;12.630;2023-11-21T10:35:51;13.88;;;4.22;;
74967;SDS011;63523;51.880;12.630;2023-11-21T10:38:19;10.68;;;3.80;;
74967;SDS011;63523;51.880;12.630;2023-11-21T10:40:49;10.75;;;3.80;;
74967;SDS011;63523;51.880;12.630;2023-11-21T10:43:15;13.10;;;4.30;;
74967;SDS011;63523;51.880;12.630;2023-11-21T10:45:41;11.63;;;3.65;;
74967;SDS011;63523;51.880;12.630;2023-11-21T10:48:08;12.02;;;3.83;;
74967;SDS011;63523;51.880;12.630;2023-11-21T10:50:35;10.10;;;3.40;;
74967;SDS011;63523;51.880;12.630;2023-11-21T10:53:02;10.43;;;3.33;;
74967;SDS011;63523;51.880;12.630;2023-11-21T10:55:29;10.85;;;2.85;;
74967;SDS011;63523;51.880;12.630;2023-11-21T10:57:55;8.95;;;2.83;;
74967;SDS011;63523;51.880;12.630;2023-11-21T11:00:23;8.57;;;2.70;;
74967;SDS011;63523;51.880;12.630;2023-11-21T11:02:52;8.60;;;2.55;;
74967;SDS011;63523;51.880;12.630;2023-11-21T11:05:24;8.73;;;2.53;;
74967;SDS011;63523;51.880;12.630;2023-11-21T11:07:51;7.43;;;2.35;;
74967;SDS011;63523;51.880;12.630;2023-11-21T11:10:24;8.20;;;2.40;;
74967;SDS011;63523;51.880;12.630;2023-11-21T11:12:52;6.73;;;2.00;;
74967;SDS011;63523;51.880;12.630;2023-11-21T11:15:19;8.93;;;2.42;;
74967;SDS011;63523;51.880;12.630;2023-11-21T11:17:45;7.20;;;2.08;;
74967;SDS011;63523;51.880;12.630;2023-11-21T11:20:12;7.88;;;2.22;;
74967;SDS011;63523;51.880;12.630;2023-11-21T11:22:57;6.25;;;1.92;;
74967;SDS011;63523;51.880;12.630;2023-11-21T11:25:38;8.20;;;2.37;;
74967;SDS011;63523;51.880;12.630;2023-11-21T11:28:10;6.88;;;1.80;;
74967;SDS011;63523;51.880;12.630;2023-11-21T11:30:41;6.72;;;2.00;;
74967;SDS011;63523;51.880;12.630;2023-11-21T11:33:30;8.30;;;2.65;;
74967;SDS011;63523;51.880;12.630;2023-11-21T11:36:33;9.40;;;1.92;;
74967;SDS011;63523;51.880;12.630;2023-11-21T11:39:29;6.63;;;1.90;;
74967;SDS011;63523;51.880;12.630;2023-11-21T11:41:56;7.43;;;1.80;;
74967;SDS011;63523;51.880;12.630;2023-11-21T11:47:25;5.88;;;1.77;;
74967;SDS011;63523;51.880;12.630;2023-11-21T11:49:58;6.28;;;1.60;;
74967;SDS011;63523;51.880;12.630;2023-11-21T11:52:45;5.63;;;1.60;;
74967;SDS011;63523;51.880;12.630;2023-11-21T11:55:13;6.35;;;1.50;;
74967;SDS011;63523;51.880;12.630;2023-11-21T11:57:41;6.68;;;1.98;;
74967;SDS011;63523;51.880;12.630;2023-11-21T12:00:14;5.88;;;1.70;;
74967;SDS011;63523;51.880;12.630;2023-11-21T12:02:41;6.53;;;1.70;;
74967;SDS011;63523;51.880;12.630;2023-11-21T12:05:11;7.97;;;1.50;;
74967;SDS011;63523;51.880;12.630;2023-11-21T12:07:50;5.53;;;1.40;;
74967;SDS011;63523;51.880;12.630;2023-11-21T12:10:20;6.20;;;1.90;;
74967;SDS011;63523;51.880;12.630;2023-11-21T12:12:49;5.07;;;1.40;;
74967;SDS011;63523;51.880;12.630;2023-11-21T12:15:25;5.90;;;1.60;;
74967;SDS011;63523;51.880;12.630;2023-11-21T12:17:51;6.47;;;1.50;;
74967;SDS011;63523;51.880;12.630;2023-11-21T12:20:21;5.68;;;1.60;;
74967;SDS011;63523;51.880;12.630;2023-11-21T12:22:48;5.90;;;1.30;;
74967;SDS011;63523;51.880;12.630;2023-11-21T12:25:22;6.00;;;1.43;;
74967;SDS011;63523;51.880;12.630;2023-11-21T12:27:50;5.68;;;1.48;;
74967;SDS011;63523;51.880;12.630;2023-11-21T12:30:19;4.57;;;1.08;;
74967;SDS011;63523;51.880;12.630;2023-11-21T12:32:51;4.90;;;0.95;;
74967;SDS011;63523;51.880;12.630;2023-11-21T12:35:18;4.05;;;0.73;;
74967;SDS011;63523;51.880;12.630;2023-11-21T12:37:45;4.47;;;0.83;;
74967;SDS011;63523;51.880;12.630;2023-11-21T12:40:11;4.28;;;0.85;;
74967;SDS011;63523;51.880;12.630;2023-11-21T12:42:43;4.72;;;0.90;;
74967;SDS011;63523;51.880;12.630;2023-11-21T12:45:31;6.22;;;1.05;;
74967;SDS011;63523;51.880;12.630;2023-11-21T12:47:57;4.15;;;0.95;;
74967;SDS011;63523;51.880;12.630;2023-11-21T12:50:29;4.90;;;1.20;;
74967;SDS011;63523;51.880;12.630;2023-11-21T12:53:03;5.13;;;0.80;;
74967;SDS011;63523;51.880;12.630;2023-11-21T12:55:30;4.47;;;1.17;;
74967;SDS011;63523;51.880;12.630;2023-11-21T12:57:57;6.10;;;1.13;;
74967;SDS011;63523;51.880;12.630;2023-11-21T13:00:34;4.28;;;0.88;;
74967;SDS011;63523;51.880;12.630;2023-11-21T13:03:02;5.20;;;1.07;;
74967;SDS011;63523;51.880;12.630;2023-11-21T13:05:47;5.68;;;1.10;;
74967;SDS011;63523;51.880;12.630;2023-11-21T13:08:18;6.28;;;1.67;;
74967;SDS011;63523;51.880;12.630;2023-11-21T13:10:48;5.18;;;1.25;;
74967;SDS011;63523;51.880;12.630;2023-11-21T13:13:19;6.18;;;1.75;;
74967;SDS011;63523;51.880;12.630;2023-11-21T13:15:48;5.50;;;1.00;;
74967;SDS011;63523;51.880;12.630;2023-11-21T13:18:14;6.28;;;1.55;;
74967;SDS011;63523;51.880;12.630;2023-11-21T13:20:41;5.07;;;1.35;;
74967;SDS011;63523;51.880;12.630;2023-11-21T13:23:08;4.97;;;1.27;;
74967;SDS011;63523;51.880;12.630;2023-11-21T13:25:36;5.40;;;1.40;;
74967;SDS011;63523;51.880;12.630;2023-11-21T13:28:06;5.00;;;1.17;;
74967;SDS011;63523;51.880;12.630;2023-11-21T13:30:32;6.20;;;1.77;;
74967;SDS011;63523;51.880;12.630;2023-11-21T13:33:01;5.10;;;1.17;;
74967;SDS011;63523;51.880;12.630;2023-11-21T13:35:30;5.83;;;1.93;;
74967;SDS011;63523;51.880;12.630;2023-11-21T13:38:02;6.88;;;1.80;;
74967;SDS011;63523;51.880;12.630;2023-11-21T13:40:30;6.35;;;1.83;;
74967;SDS011;63523;51.880;12.630;2023-11-21T13:42:56;6.40;;;1.90;;
74967;SDS011;63523;51.880;12.630;2023-11-21T13:45:25;5.97;;;1.52;;
74967;SDS011;63523;51.880;12.630;2023-11-21T13:47:51;6.85;;;1.83;;
74967;SDS011;63523;51.880;12.630;2023-11-21T13:50:20;7.53;;;2.03;;
74967;SDS011;63523;51.880;12.630;2023-11-21T13:52:53;6.83;;;2.37;;
74967;SDS011;63523;51.880;12.630;2023-11-21T13:55:19;5.88;;;1.60;;
74967;SDS011;63523;51.880;12.630;2023-11-21T13:57:45;6.13;;;1.80;;
74967;SDS011;63523;51.880;12.630;2023-11-21T14:00:14;5.78;;;1.80;;
74967;SDS011;63523;51.880;12.630;2023-11-21T14:03:00;7.20;;;2.22;;
74967;SDS011;63523;51.880;12.630;2023-11-21T14:05:30;7.05;;;2.13;;
74967;SDS011;63523;51.880;12.630;2023-11-21T14:07:58;6.10;;;1.90;;
74967;SDS011;63523;51.880;12.630;2023-11-21T14:10:30;6.67;;;2.07;;
74967;SDS011;63523;51.880;12.630;2023-11-21T14:13:05;6.57;;;2.03;;
74967;SDS011;63523;51.880;12.630;2023-11-21T14:15:31;6.75;;;2.30;;
74967;SDS011;63523;51.880;12.630;2023-11-21T14:17:58;6.70;;;2.03;;
74967;SDS011;63523;51.880;12.630;2023-11-21T14:20:24;5.27;;;1.67;;
74967;SDS011;63523;51.880;12.630;2023-11-21T14:22:50;9.52;;;1.83;;
74967;SDS011;63523;51.880;12.630;2023-11-21T14:25:15;7.03;;;2.47;;
74967;SDS011;63523;51.880;12.630;2023-11-21T14:27:42;6.85;;;2.40;;
74967;SDS011;63523;51.880;12.630;2023-11-21T14:30:08;7.20;;;2.03;;
74967;SDS011;63523;51.880;12.630;2023-11-21T14:32:33;7.30;;;2.20;;
74967;SDS011;63523;51.880;12.630;2023-11-21T14:34:59;7.53;;;1.60;;
74967;SDS011;63523;51.880;12.630;2023-11-21T14:37:24;7.07;;;1.93;;